createdAt,value
2023-04-30T00:01:04.565Z,94862.69
2023-04-30T00:03:44.695Z,94861.88
2023-04-30T00:06:31.625Z,94861.88
2023-04-30T00:09:04.718Z,94861.91
2023-04-30T00:11:51.599Z,94855.06
2023-04-30T00:14:24.733Z,94854.25
2023-04-30T00:17:11.688Z,94851.72
2023-04-30T00:19:51.572Z,94858.50
2023-04-30T00:22:45.629Z,94857.66
2023-04-30T00:25:32.598Z,94852.59
2023-04-30T00:28:05.675Z,94856.81
2023-04-30T00:30:52.592Z,94865.28
2023-04-30T00:33:32.579Z,94855.13
2023-04-30T00:36:19.571Z,94855.09
2023-04-30T00:38:52.672Z,94850.00
2023-04-30T00:41:42.630Z,94853.34
2023-04-30T00:44:15.785Z,94853.31
2023-04-30T00:47:02.596Z,94854.97
2023-04-30T00:49:35.731Z,94859.19
2023-04-30T00:52:29.588Z,94857.50
2023-04-30T00:55:25.726Z,94848.22
2023-04-30T00:58:12.606Z,94848.22
2023-04-30T01:00:53.617Z,94847.38
2023-04-30T01:03:48.700Z,94853.34
2023-04-30T01:06:35.695Z,94846.56
2023-04-30T01:09:08.715Z,94851.66
2023-04-30T01:12:37.580Z,94844.00
2023-04-30T01:15:19.800Z,94853.31
2023-04-30T01:18:12.742Z,94849.13
2023-04-30T01:20:55.781Z,94844.88
2023-04-30T01:24:13.603Z,94851.72
2023-04-30T01:27:43.620Z,94850.91
2023-04-30T01:30:37.581Z,94848.34
2023-04-30T01:33:24.581Z,94843.31
2023-04-30T01:36:06.703Z,94845.84
2023-04-30T01:39:38.602Z,94850.94
2023-04-30T01:42:21.287Z,94850.91
2023-04-30T01:45:34.598Z,94851.78
2023-04-30T01:48:29.622Z,94846.69
2023-04-30T01:51:56.600Z,94855.16
2023-04-30T01:54:51.239Z,94850.03
2023-04-30T01:58:09.605Z,94855.13
2023-04-30T02:00:42.962Z,94853.41
2023-04-30T02:03:29.690Z,94858.50
2023-04-30T02:06:03.012Z,94857.59
2023-04-30T02:08:49.623Z,94860.13
2023-04-30T02:11:32.615Z,94870.28
2023-04-30T02:14:12.725Z,94871.97
2023-04-30T02:16:53.620Z,94873.63
2023-04-30T02:19:33.701Z,94877.84
2023-04-30T02:22:13.613Z,94866.81
2023-04-30T02:24:55.696Z,94871.88
2023-04-30T02:27:37.614Z,94869.34
2023-04-30T02:30:26.616Z,94873.59
2023-04-30T02:33:00.222Z,94867.66
2023-04-30T02:35:47.627Z,94869.38
2023-04-30T02:38:21.320Z,94864.25
2023-04-30T02:41:07.658Z,94863.41
2023-04-30T02:43:40.976Z,94871.88
2023-04-30T02:46:27.631Z,94868.50
2023-04-30T02:49:01.159Z,94868.44
2023-04-30T02:51:47.627Z,94867.59
2023-04-30T02:54:41.620Z,94867.56
2023-04-30T02:57:28.625Z,94865.84
2023-04-30T03:00:01.812Z,94868.41
2023-04-30T03:02:48.719Z,94875.16
2023-04-30T03:05:21.746Z,94874.31
2023-04-30T03:08:08.628Z,94872.59
2023-04-30T03:10:41.756Z,94881.09
2023-04-30T03:13:28.652Z,94884.47
2023-04-30T03:16:16.633Z,94892.06
2023-04-30T03:19:10.624Z,94883.56
2023-04-30T03:21:58.644Z,94886.13
2023-04-30T03:24:38.647Z,94886.13
2023-04-30T03:27:25.633Z,94881.88
2023-04-30T03:29:58.735Z,94883.53
2023-04-30T03:32:45.706Z,94883.53
2023-04-30T03:35:25.661Z,94886.09
2023-04-30T03:38:12.658Z,94886.09
2023-04-30T03:40:45.957Z,94879.31
2023-04-30T03:43:32.641Z,94890.31
2023-04-30T03:46:12.717Z,94896.28
2023-04-30T03:48:59.651Z,94891.19
2023-04-30T03:51:34.836Z,94892.00
2023-04-30T03:54:21.677Z,94893.72
2023-04-30T03:56:54.747Z,94898.81
2023-04-30T03:59:41.720Z,94899.66
2023-04-30T04:02:14.764Z,94899.69
2023-04-30T04:05:01.694Z,94901.38
2023-04-30T04:07:41.654Z,94902.19
2023-04-30T04:10:35.685Z,94904.69
2023-04-30T04:13:29.672Z,94899.59
2023-04-30T04:16:16.699Z,94908.97
2023-04-30T04:18:56.680Z,94903.81
2023-04-30T04:21:50.700Z,94907.19
2023-04-30T04:24:44.702Z,94908.03
2023-04-30T04:27:38.668Z,94906.31
2023-04-30T04:30:32.692Z,94910.53
2023-04-30T04:33:19.682Z,94908.84
2023-04-30T04:35:52.759Z,94913.97
2023-04-30T04:38:39.682Z,94913.09
2023-04-30T04:41:19.665Z,94914.75
2023-04-30T04:44:13.711Z,94918.13
2023-04-30T04:47:07.663Z,94912.97
2023-04-30T04:49:54.957Z,94920.63
2023-04-30T04:52:28.861Z,94921.44
2023-04-30T04:55:15.676Z,94924.84
2023-04-30T04:57:48.836Z,94925.66
2023-04-30T05:00:36.725Z,94929.03
2023-04-30T05:03:16.761Z,94937.53
2023-04-30T05:06:10.694Z,94935.81
2023-04-30T05:08:57.676Z,94936.63
2023-04-30T05:11:30.819Z,94945.06
2023-04-30T05:14:17.685Z,94944.19
2023-04-30T05:16:50.841Z,94953.50
2023-04-30T05:19:37.691Z,94945.84
2023-04-30T05:22:17.715Z,94951.78
2023-04-30T05:25:11.710Z,94951.72
2023-04-30T05:27:58.666Z,94950.00
2023-04-30T05:30:32.379Z,94946.50
2023-04-30T05:33:18.686Z,94953.22
2023-04-30T05:35:58.718Z,94953.13
2023-04-30T05:38:45.733Z,94959.06
2023-04-30T05:41:19.773Z,94960.72
2023-04-30T05:44:06.723Z,94964.97
2023-04-30T05:46:40.795Z,94960.72
2023-04-30T05:49:27.732Z,94970.06
2023-04-30T05:52:08.711Z,94961.50
2023-04-30T05:55:02.721Z,94964.84
2023-04-30T05:57:49.727Z,94971.56
2023-04-30T06:00:22.839Z,94980.88
2023-04-30T06:03:10.754Z,94975.75
2023-04-30T06:05:44.530Z,94980.81
2023-04-30T06:08:31.718Z,94979.03
2023-04-30T06:11:05.411Z,94988.28
2023-04-30T06:13:54.709Z,94979.72
2023-04-30T06:16:27.998Z,94985.59
2023-04-30T06:19:14.717Z,94979.53
2023-04-30T06:21:47.859Z,94992.28
2023-04-30T06:24:34.751Z,94987.13
2023-04-30T06:27:14.735Z,94977.66
2023-04-30T06:30:01.732Z,94991.97
2023-04-30T06:32:35.042Z,94988.41
2023-04-30T06:35:21.730Z,94987.34
2023-04-30T06:37:54.828Z,94982.13
2023-04-30T06:40:42.742Z,94984.59
2023-04-30T06:43:22.753Z,94992.16
2023-04-30T06:46:10.796Z,95000.63
2023-04-30T06:48:43.889Z,95002.31
2023-04-30T06:51:30.723Z,95003.28
2023-04-30T06:54:03.854Z,95008.31
2023-04-30T06:56:51.751Z,95016.00
2023-04-30T06:59:24.847Z,95011.78
2023-04-30T07:02:11.778Z,95012.59
2023-04-30T07:04:51.749Z,95013.44
2023-04-30T07:07:38.750Z,95008.38
2023-04-30T07:10:13.547Z,95016.16
2023-04-30T07:13:00.767Z,95014.50
2023-04-30T07:15:34.136Z,95017.03
2023-04-30T07:18:20.733Z,95022.16
2023-04-30T07:21:00.749Z,95023.00
2023-04-30T07:23:54.736Z,95021.34
2023-04-30T07:26:42.770Z,95025.56
2023-04-30T07:29:22.738Z,95025.53
2023-04-30T07:32:09.745Z,95028.09
2023-04-30T07:34:49.742Z,95028.94
2023-04-30T07:37:37.188Z,95036.59
2023-04-30T07:40:28.966Z,95035.78
2023-04-30T07:43:21.747Z,95039.16
2023-04-30T07:46:01.799Z,95044.25
2023-04-30T07:48:55.751Z,95050.25
2023-04-30T07:51:42.749Z,95046.06
2023-04-30T07:54:15.851Z,95054.63
2023-04-30T07:57:02.777Z,95059.78
2023-04-30T07:59:42.777Z,95062.41
2023-04-30T08:02:29.820Z,95059.09
2023-04-30T08:05:04.080Z,95065.13
2023-04-30T08:07:50.767Z,95077.06
2023-04-30T08:10:30.765Z,95069.47
2023-04-30T08:13:17.781Z,95075.47
2023-04-30T08:15:57.763Z,95084.94
2023-04-30T08:18:52.878Z,95087.50
2023-04-30T08:21:46.804Z,95081.56
2023-04-30T08:24:33.817Z,95090.94
2023-04-30T08:27:13.805Z,95092.59
2023-04-30T08:30:07.776Z,95101.16
2023-04-30T08:32:57.653Z,95104.59
2023-04-30T08:35:37.776Z,95102.88
2023-04-30T08:38:31.776Z,95111.31
2023-04-30T08:41:27.791Z,95107.91
2023-04-30T08:44:17.785Z,95114.75
2023-04-30T08:46:50.946Z,95119.84
2023-04-30T08:49:39.796Z,95126.69
2023-04-30T08:52:13.899Z,95130.97
2023-04-30T08:55:02.822Z,95131.97
2023-04-30T08:57:38.956Z,95127.81
2023-04-30T09:00:25.798Z,95133.03
2023-04-30T09:02:58.981Z,95127.09
2023-04-30T09:05:46.781Z,95133.97
2023-04-30T09:08:24.919Z,95139.16
2023-04-30T09:11:33.853Z,95136.63
2023-04-30T09:14:08.929Z,95140.94
2023-04-30T09:16:57.814Z,95144.28
2023-04-30T09:19:36.100Z,95151.88
2023-04-30T09:22:30.810Z,95152.63
2023-04-30T09:25:03.979Z,95163.69
2023-04-30T09:27:51.810Z,95165.38
2023-04-30T09:30:45.970Z,95168.03
2023-04-30T09:33:36.819Z,95161.31
2023-04-30T09:36:16.326Z,95165.56
2023-04-30T09:39:02.789Z,95169.78
2023-04-30T09:41:35.943Z,95179.97
2023-04-30T09:44:44.838Z,95182.53
2023-04-30T09:47:26.861Z,95170.69
2023-04-30T09:50:20.811Z,95180.00
2023-04-30T09:53:21.814Z,95188.59
2023-04-30T09:56:10.810Z,95189.47
2023-04-30T09:58:45.428Z,95186.13
2023-04-30T10:01:34.812Z,95190.47
2023-04-30T10:04:08.125Z,95193.00
2023-04-30T10:06:54.826Z,95192.09
2023-04-30T10:09:28.956Z,95191.22
2023-04-30T10:12:21.822Z,95200.63
2023-04-30T10:15:01.989Z,95203.03
2023-04-30T10:17:53.877Z,95206.41
2023-04-30T10:20:29.923Z,95202.97
2023-04-30T10:23:17.861Z,95208.13
2023-04-30T10:25:50.946Z,95203.84
2023-04-30T10:28:39.861Z,95203.75
2023-04-30T10:31:14.330Z,95208.91
2023-04-30T10:34:05.841Z,95210.63
2023-04-30T10:36:57.040Z,95204.69
2023-04-30T10:39:44.857Z,95199.53
2023-04-30T10:42:24.850Z,95210.56
2023-04-30T10:45:18.836Z,95213.88
2023-04-30T10:48:05.906Z,95211.34
2023-04-30T10:50:40.347Z,95212.13
2023-04-30T10:53:35.864Z,95212.19
2023-04-30T10:56:42.876Z,95215.63
2023-04-30T10:59:36.878Z,95207.97
2023-04-30T11:02:26.859Z,95207.91
2023-04-30T11:05:26.840Z,95205.34
2023-04-30T11:08:24.853Z,95214.66
2023-04-30T11:11:14.837Z,95214.66
2023-04-30T11:13:51.985Z,95219.81
2023-04-30T11:16:42.108Z,95217.28
2023-04-30T11:19:20.963Z,95222.38
2023-04-30T11:22:10.962Z,95216.44
2023-04-30T11:25:16.972Z,95216.44
2023-04-30T11:28:03.881Z,95219.81
2023-04-30T11:30:40.583Z,95218.09
2023-04-30T11:33:27.914Z,95219.03
2023-04-30T11:36:02.982Z,95221.53
2023-04-30T11:38:49.856Z,95215.59
2023-04-30T11:41:23.447Z,95220.69
2023-04-30T11:44:09.865Z,95220.66
2023-04-30T11:46:43.053Z,95216.38
2023-04-30T11:49:30.863Z,95213.78
2023-04-30T11:52:04.034Z,95224.00
2023-04-30T11:54:50.881Z,95232.50
2023-04-30T11:57:23.987Z,95229.09
2023-04-30T12:00:20.035Z,95232.53
2023-04-30T12:02:55.059Z,95226.59
2023-04-30T12:05:41.887Z,95224.00
2023-04-30T12:08:21.877Z,95226.53
2023-04-30T12:11:08.869Z,95223.00
2023-04-30T12:13:42.070Z,95213.47
2023-04-30T12:16:30.878Z,95212.41
2023-04-30T12:19:04.044Z,95222.38
2023-04-30T12:21:55.896Z,95217.81
2023-04-30T12:24:33.992Z,95216.63
2023-04-30T12:27:21.888Z,95215.41
2023-04-30T12:29:56.516Z,95219.44
2023-04-30T12:32:55.954Z,95213.22
2023-04-30T12:35:40.899Z,95205.22
2023-04-30T12:38:34.903Z,95205.81
2023-04-30T12:41:28.883Z,95205.50
2023-04-30T12:44:29.884Z,95200.28
2023-04-30T12:47:16.907Z,95192.47
2023-04-30T12:49:52.475Z,95195.66
2023-04-30T12:52:39.229Z,95196.28
2023-04-30T12:55:27.109Z,95190.84
2023-04-30T12:58:15.924Z,95200.78
2023-04-30T13:00:56.750Z,95197.28
2023-04-30T13:03:44.030Z,95181.81
2023-04-30T13:06:17.273Z,95190.22
2023-04-30T13:09:03.886Z,95193.75
2023-04-30T13:11:37.198Z,95199.75
2023-04-30T13:14:23.923Z,95193.84
2023-04-30T13:17:03.906Z,95194.75
2023-04-30T13:19:57.910Z,95191.41
2023-04-30T13:22:46.337Z,95188.78
2023-04-30T13:25:20.027Z,95187.06
2023-04-30T13:28:06.956Z,95187.84
2023-04-30T13:30:47.910Z,95192.91
2023-04-30T13:33:41.956Z,95188.69
2023-04-30T13:36:36.907Z,95193.00
2023-04-30T13:39:23.913Z,95188.69
2023-04-30T13:41:58.878Z,95176.63
2023-04-30T13:44:45.930Z,95177.50
2023-04-30T13:47:25.971Z,95176.59
2023-04-30T13:50:14.964Z,95185.28
2023-04-30T13:52:48.076Z,95174.97
2023-04-30T13:55:40.910Z,95176.69
2023-04-30T13:58:16.790Z,95168.81
2023-04-30T14:01:04.030Z,95168.81
2023-04-30T14:03:37.130Z,95166.06
2023-04-30T14:06:24.008Z,95166.97
2023-04-30T14:09:03.924Z,95162.91
2023-04-30T14:11:57.983Z,95152.91
2023-04-30T14:14:46.290Z,95158.88
2023-04-30T14:17:27.047Z,95160.53
2023-04-30T14:20:14.973Z,95152.78
2023-04-30T14:22:48.082Z,95165.59
2023-04-30T14:25:34.992Z,95157.00
2023-04-30T14:28:08.082Z,95152.56
2023-04-30T14:30:54.968Z,95149.84
2023-04-30T14:33:34.964Z,95157.22
2023-04-30T14:36:21.988Z,95168.19
2023-04-30T14:38:55.124Z,95158.00
2023-04-30T14:41:42.961Z,95157.19
2023-04-30T14:44:16.112Z,95156.34
2023-04-30T14:47:02.966Z,95159.88
2023-04-30T14:49:42.967Z,95164.19
2023-04-30T14:52:29.997Z,95168.47
2023-04-30T14:55:10.964Z,95172.81
2023-04-30T14:57:58.005Z,95170.44
2023-04-30T15:00:37.996Z,95167.16
2023-04-30T15:03:25.201Z,95165.41
2023-04-30T15:05:58.227Z,95157.72
2023-04-30T15:08:46.173Z,95164.53
2023-04-30T15:11:26.096Z,95156.81
2023-04-30T15:14:20.065Z,95158.47
2023-04-30T15:17:07.001Z,95159.28
2023-04-30T15:19:40.096Z,95176.41
2023-04-30T15:22:28.134Z,95164.47
2023-04-30T15:25:08.040Z,95168.00
2023-04-30T15:28:02.012Z,95180.81
2023-04-30T15:30:56.135Z,95184.28
2023-04-30T15:33:48.234Z,95185.31
2023-04-30T15:36:23.448Z,95174.22
2023-04-30T15:39:11.065Z,95182.03
2023-04-30T15:41:44.982Z,95184.72
2023-04-30T15:44:32.009Z,95180.56
2023-04-30T15:47:05.280Z,95188.22
2023-04-30T15:49:52.114Z,95183.97
2023-04-30T15:52:25.098Z,95189.19
2023-04-30T15:55:13.020Z,95190.94
2023-04-30T15:57:52.990Z,95193.50
2023-04-30T16:00:42.966Z,95191.88
2023-04-30T16:03:23.059Z,95199.69
2023-04-30T16:06:17.020Z,95189.47
2023-04-30T16:09:06.729Z,95195.53
2023-04-30T16:11:42.297Z,95191.44
2023-04-30T16:14:29.068Z,95198.41
2023-04-30T16:17:08.994Z,95195.81
2023-04-30T16:20:02.997Z,95194.19
2023-04-30T16:22:59.007Z,95197.66
2023-04-30T16:25:46.057Z,95194.38
2023-04-30T16:28:19.157Z,95195.28
2023-04-30T16:31:06.050Z,95198.03
2023-04-30T16:33:39.202Z,95193.91
2023-04-30T16:36:26.062Z,95194.88
2023-04-30T16:39:06.108Z,95200.88
2023-04-30T16:42:00.040Z,95190.75
2023-04-30T16:44:47.002Z,95196.88
2023-04-30T16:47:20.204Z,95196.91
2023-04-30T16:50:06.992Z,95200.28
2023-04-30T16:52:40.129Z,95197.78
2023-04-30T16:55:27.067Z,95199.63
2023-04-30T16:58:00.219Z,95199.69
2023-04-30T17:00:48.941Z,95203.22
2023-04-30T17:03:29.134Z,95204.13
2023-04-30T17:06:16.147Z,95200.00
2023-04-30T17:08:56.062Z,95199.28
2023-04-30T17:11:50.057Z,95204.53
2023-04-30T17:14:37.066Z,95205.50
2023-04-30T17:17:10.151Z,95206.47
2023-04-30T17:19:57.192Z,95212.56
2023-04-30T17:22:38.051Z,95217.75
2023-04-30T17:25:32.045Z,95221.31
2023-04-30T17:28:19.078Z,95223.16
2023-04-30T17:30:52.514Z,95220.69
2023-04-30T17:33:41.249Z,95223.41
2023-04-30T17:36:25.049Z,95225.25
2023-04-30T17:39:19.062Z,95225.38
2023-04-30T17:42:06.065Z,95230.59
2023-04-30T17:44:39.872Z,95229.84
2023-04-30T17:47:29.124Z,95237.56
2023-04-30T17:50:11.078Z,95242.75
2023-04-30T17:52:51.069Z,95242.00
2023-04-30T17:55:38.065Z,95248.03
2023-04-30T17:58:33.087Z,95251.50
2023-04-30T18:01:20.092Z,95259.22
2023-04-30T18:03:53.638Z,95260.16
2023-04-30T18:06:40.160Z,95263.56
2023-04-30T18:09:20.067Z,95270.41
2023-04-30T18:12:14.097Z,95277.28
2023-04-30T18:15:01.073Z,95274.81
2023-04-30T18:17:41.087Z,95270.59
2023-04-30T18:20:29.086Z,95276.59
2023-04-30T18:23:09.876Z,95279.13
2023-04-30T18:25:58.087Z,95294.47
2023-04-30T18:28:39.086Z,95289.41
2023-04-30T18:31:33.095Z,95283.50
2023-04-30T18:34:21.078Z,95293.72
2023-04-30T18:37:01.121Z,95303.06
2023-04-30T18:39:55.251Z,95302.28
2023-04-30T18:42:44.086Z,95306.53
2023-04-30T18:45:18.130Z,95311.66
2023-04-30T18:48:05.117Z,95309.94
2023-04-30T18:50:40.683Z,95318.44
2023-04-30T18:53:29.112Z,95321.00
2023-04-30T18:56:05.256Z,95320.16
2023-04-30T18:58:55.127Z,95321.84
2023-04-30T19:01:28.759Z,95334.56
2023-04-30T19:04:20.124Z,95335.44
2023-04-30T19:07:03.078Z,95334.59
2023-04-30T19:09:52.129Z,95341.41
2023-04-30T19:12:26.320Z,95334.59
2023-04-30T19:15:16.086Z,95342.25
2023-04-30T19:17:56.117Z,95345.66
2023-04-30T19:20:45.184Z,95346.50
2023-04-30T19:23:18.915Z,95349.06
2023-04-30T19:26:08.824Z,95361.78
2023-04-30T19:28:43.253Z,95345.66
2023-04-30T19:31:30.404Z,95357.53
2023-04-30T19:34:07.209Z,95356.69
2023-04-30T19:36:54.110Z,95358.41
2023-04-30T19:39:35.114Z,95365.19
2023-04-30T19:42:29.123Z,95371.09
2023-04-30T19:45:17.137Z,95367.69
2023-04-30T19:47:57.137Z,95370.22
2023-04-30T19:50:48.098Z,95372.75
2023-04-30T19:53:32.120Z,95365.97
2023-04-30T19:56:27.264Z,95371.03
2023-04-30T19:59:15.119Z,95365.91
2023-04-30T20:01:55.142Z,95368.44
2023-04-30T20:04:43.135Z,95372.66
2023-04-30T20:07:23.127Z,95375.16
2023-04-30T20:10:10.140Z,95375.13
2023-04-30T20:12:50.147Z,95375.13
2023-04-30T20:15:44.160Z,95378.50
2023-04-30T20:18:31.133Z,95378.47
2023-04-30T20:21:04.708Z,95380.13
2023-04-30T20:23:51.126Z,95379.31
2023-04-30T20:26:25.882Z,95390.28
2023-04-30T20:29:13.134Z,95387.69
2023-04-30T20:31:47.459Z,95389.34
2023-04-30T20:34:34.111Z,95392.72
2023-04-30T20:37:07.280Z,95396.09
2023-04-30T20:39:54.287Z,95401.13
2023-04-30T20:42:28.276Z,95399.44
2023-04-30T20:45:16.137Z,95406.16
2023-04-30T20:47:57.466Z,95408.66
2023-04-30T20:50:44.116Z,95405.28
2023-04-30T20:53:17.379Z,95417.09
2023-04-30T20:56:07.131Z,95408.56
2023-04-30T20:58:47.143Z,95410.22
2023-04-30T21:01:34.181Z,95411.03
2023-04-30T21:04:07.860Z,95414.34
2023-04-30T21:06:54.154Z,95412.59
2023-04-30T21:09:34.150Z,95412.56
2023-04-30T21:12:28.129Z,95417.59
2023-04-30T21:15:16.121Z,95415.00
2023-04-30T21:17:49.312Z,95420.00
2023-04-30T21:20:38.137Z,95418.28
2023-04-30T21:23:11.314Z,95419.94
2023-04-30T21:26:01.200Z,95415.69
2023-04-30T21:28:35.449Z,95416.50
2023-04-30T21:31:22.228Z,95414.75
2023-04-30T21:33:55.253Z,95416.38
2023-04-30T21:36:42.140Z,95415.47
2023-04-30T21:39:15.475Z,95414.63
2023-04-30T21:42:02.122Z,95411.25
2023-04-30T21:44:37.431Z,95415.41
2023-04-30T21:47:24.162Z,95414.56
2023-04-30T21:50:05.183Z,95417.09
2023-04-30T21:52:52.156Z,95417.06
2023-04-30T21:55:26.681Z,95423.75
2023-04-30T21:58:13.191Z,95424.56
2023-04-30T22:00:46.563Z,95426.19
2023-04-30T22:03:35.636Z,95422.75
2023-04-30T22:06:09.323Z,95425.19
2023-04-30T22:08:56.134Z,95432.72
2023-04-30T22:11:29.239Z,95438.56
2023-04-30T22:14:16.135Z,95435.94
2023-04-30T22:16:56.321Z,95434.22
2023-04-30T22:19:43.191Z,95441.69
2023-04-30T22:22:16.529Z,95433.97
2023-04-30T22:25:03.158Z,95437.25
2023-04-30T22:27:36.342Z,95445.63
2023-04-30T22:30:24.141Z,95449.78
2023-04-30T22:33:04.222Z,95442.97
2023-04-30T22:35:51.175Z,95450.50
2023-04-30T22:38:31.180Z,95442.84
2023-04-30T22:41:25.169Z,95452.91
2023-04-30T22:44:12.163Z,95446.13
2023-04-30T22:46:45.326Z,95451.13
2023-04-30T22:49:33.197Z,95453.59
2023-04-30T22:52:14.176Z,95449.38
2023-04-30T22:55:08.143Z,95452.69
2023-04-30T22:57:55.173Z,95455.09
2023-04-30T23:00:35.241Z,95457.56
2023-04-30T23:03:29.174Z,95454.97
2023-04-30T23:06:16.188Z,95454.03
2023-04-30T23:08:56.171Z,95453.16
2023-04-30T23:11:43.163Z,95452.31
2023-04-30T23:14:24.163Z,95452.34
2023-04-30T23:17:18.267Z,95449.75
2023-04-30T23:20:05.208Z,95453.84
2023-04-30T23:22:38.306Z,95452.13
2023-04-30T23:25:25.172Z,95458.00
2023-04-30T23:27:59.787Z,95463.00
2023-04-30T23:30:46.176Z,95459.59
2023-04-30T23:33:19.631Z,95462.88
2023-04-30T23:36:06.221Z,95466.22
2023-04-30T23:38:39.276Z,95462.75
2023-04-30T23:41:26.194Z,95463.56
2023-04-30T23:44:06.199Z,95468.53
2023-04-30T23:46:54.245Z,95472.72
2023-04-30T23:49:27.315Z,95473.50
2023-04-30T23:52:14.173Z,95468.44
2023-04-30T23:54:47.348Z,95472.59
2023-04-30T23:57:34.178Z,95475.88
